createdAt,value
2017-09-20T00:01:43.680Z,35.78
2017-09-20T00:04:12.273Z,33.17
2017-09-20T00:06:40.805Z,32.63
2017-09-20T00:09:08.576Z,32.08
2017-09-20T00:11:36.390Z,29.05
2017-09-20T00:14:04.169Z,29.40
2017-09-20T00:16:32.010Z,31.45
2017-09-20T00:18:59.799Z,31.02
2017-09-20T00:21:27.585Z,34.55
2017-09-20T00:23:55.389Z,30.60
2017-09-20T00:26:23.931Z,34.25
2017-09-20T00:28:51.761Z,33.63
2017-09-20T00:31:19.535Z,31.25
2017-09-20T00:33:47.405Z,32.30
2017-09-20T00:36:15.216Z,32.30
2017-09-20T00:38:43.744Z,32.95
2017-09-20T00:41:11.602Z,34.45
2017-09-20T00:43:39.392Z,31.27
2017-09-20T00:46:07.174Z,30.55
2017-09-20T00:48:35.741Z,34.00
2017-09-20T00:51:03.513Z,30.90
2017-09-20T00:53:31.361Z,31.92
2017-09-20T00:55:59.142Z,35.65
2017-09-20T00:58:27.702Z,32.92
2017-09-20T01:00:55.529Z,36.35
2017-09-20T01:03:23.308Z,35.80
2017-09-20T01:05:51.155Z,32.08
2017-09-20T01:08:18.954Z,31.87
2017-09-20T01:10:46.733Z,31.15
2017-09-20T01:13:15.300Z,37.83
2017-09-20T01:15:43.086Z,34.83
2017-09-20T01:18:11.688Z,31.48
2017-09-20T01:20:51.396Z,36.92
2017-09-20T01:23:35.713Z,33.45
2017-09-20T01:26:03.517Z,34.88
2017-09-20T01:28:32.059Z,30.60
2017-09-20T01:30:59.866Z,33.53
2017-09-20T01:33:28.451Z,33.30
2017-09-20T01:35:56.296Z,35.55
2017-09-20T01:38:24.853Z,31.90
2017-09-20T01:40:52.633Z,33.97
2017-09-20T01:43:21.205Z,30.88
2017-09-20T01:45:48.993Z,35.03
2017-09-20T01:48:17.575Z,38.47
2017-09-20T01:50:46.123Z,46.15
2017-09-20T01:53:13.900Z,46.13
2017-09-20T01:55:42.489Z,36.95
2017-09-20T01:58:11.050Z,34.35
2017-09-20T02:00:38.874Z,35.75
2017-09-20T02:03:06.671Z,36.25
2017-09-20T02:05:34.437Z,41.42
2017-09-20T02:08:02.238Z,43.50
2017-09-20T02:10:30.009Z,34.65
2017-09-20T02:12:57.845Z,36.40
2017-09-20T02:15:26.383Z,35.50
2017-09-20T02:17:54.167Z,37.20
2017-09-20T02:20:21.959Z,40.67
2017-09-20T02:22:50.501Z,33.35
2017-09-20T02:25:18.330Z,33.75
2017-09-20T02:27:46.115Z,31.23
2017-09-20T02:30:13.891Z,38.50
2017-09-20T02:32:41.702Z,37.55
2017-09-20T02:35:09.514Z,39.25
2017-09-20T02:37:37.364Z,34.97
2017-09-20T02:40:05.159Z,33.78
2017-09-20T02:42:33.729Z,36.90
2017-09-20T02:45:01.549Z,34.92
2017-09-20T02:47:29.335Z,29.55
2017-09-20T02:49:57.220Z,30.02
2017-09-20T02:52:24.994Z,31.55
2017-09-20T02:54:53.538Z,30.10
2017-09-20T02:57:21.331Z,29.98
2017-09-20T02:59:49.894Z,31.92
2017-09-20T03:02:17.726Z,29.30
2017-09-20T03:04:45.503Z,30.27
2017-09-20T03:07:13.282Z,28.80
2017-09-20T03:09:41.098Z,31.55
2017-09-20T03:12:08.864Z,29.08
2017-09-20T03:14:36.688Z,28.55
2017-09-20T03:17:04.453Z,32.85
2017-09-20T03:19:33.004Z,30.95
2017-09-20T03:22:00.810Z,36.03
2017-09-20T03:24:28.631Z,31.17
2017-09-20T03:26:56.459Z,31.70
2017-09-20T03:29:24.240Z,34.22
2017-09-20T03:31:52.017Z,34.33
2017-09-20T03:34:19.829Z,31.20
2017-09-20T03:36:47.612Z,30.55
2017-09-20T03:39:15.443Z,29.08
2017-09-20T03:41:43.997Z,32.97
2017-09-20T03:44:11.763Z,31.30
2017-09-20T03:46:39.558Z,33.78
2017-09-20T03:49:07.346Z,31.10
2017-09-20T03:51:35.190Z,32.75
2017-09-20T03:54:02.954Z,31.75
2017-09-20T03:56:30.773Z,31.92
2017-09-20T03:58:58.578Z,31.00
2017-09-20T04:01:26.361Z,33.00
2017-09-20T04:03:54.954Z,33.30
2017-09-20T04:06:22.722Z,33.83
2017-09-20T04:08:50.505Z,31.45
2017-09-20T04:11:18.314Z,30.33
2017-09-20T04:13:46.091Z,28.90
2017-09-20T04:16:13.918Z,30.60
2017-09-20T04:18:42.450Z,31.40
2017-09-20T04:21:10.225Z,30.10
2017-09-20T04:23:38.018Z,33.13
2017-09-20T04:26:06.576Z,31.62
2017-09-20T04:28:34.395Z,27.75
2017-09-20T04:31:02.159Z,29.15
2017-09-20T04:33:29.941Z,28.48
2017-09-20T04:35:57.739Z,27.40
2017-09-20T04:38:26.273Z,27.92
2017-09-20T04:40:54.107Z,29.20
2017-09-20T04:43:21.898Z,30.30
2017-09-20T04:45:49.669Z,29.37
2017-09-20T04:48:17.486Z,31.05
2017-09-20T04:50:45.250Z,29.15
2017-09-20T04:53:13.075Z,30.23
2017-09-20T04:55:40.846Z,27.05
2017-09-20T04:58:09.391Z,26.95
2017-09-20T05:00:37.211Z,28.45
2017-09-20T05:03:04.982Z,32.17
2017-09-20T05:05:32.810Z,31.95
2017-09-20T05:08:00.602Z,25.60
2017-09-20T05:10:28.385Z,26.30
2017-09-20T05:12:56.954Z,29.02
2017-09-20T05:15:24.736Z,26.52
2017-09-20T05:17:52.576Z,25.67
2017-09-20T05:20:20.348Z,27.62
2017-09-20T05:22:48.888Z,35.60
2017-09-20T05:25:16.695Z,25.73
2017-09-20T05:27:44.461Z,25.42
2017-09-20T05:30:12.335Z,29.77
2017-09-20T05:32:40.124Z,24.85
2017-09-20T05:35:07.908Z,26.75
2017-09-20T05:37:36.496Z,31.60
2017-09-20T05:40:05.045Z,28.00
2017-09-20T05:42:33.675Z,27.08
2017-09-20T05:45:01.443Z,26.12
2017-09-20T05:47:29.225Z,28.48
2017-09-20T05:49:57.028Z,28.70
2017-09-20T05:52:25.593Z,28.48
2017-09-20T05:54:53.455Z,27.92
2017-09-20T05:57:21.238Z,29.63
2017-09-20T05:59:49.019Z,28.85
2017-09-20T06:02:16.868Z,24.90
2017-09-20T06:04:45.410Z,28.67
2017-09-20T06:07:13.247Z,31.12
2017-09-20T06:09:41.037Z,25.70
2017-09-20T06:12:08.807Z,21.17
2017-09-20T06:14:36.613Z,25.77
2017-09-20T06:17:05.148Z,19.02
2017-09-20T06:19:32.968Z,19.27
2017-09-20T06:22:00.743Z,20.12
2017-09-20T06:24:28.515Z,20.17
2017-09-20T06:26:56.324Z,18.77
2017-09-20T06:29:24.868Z,18.30
2017-09-20T06:31:52.699Z,19.48
2017-09-20T06:34:20.479Z,18.40
2017-09-20T06:36:48.250Z,17.85
2017-09-20T06:39:16.075Z,17.65
2017-09-20T06:41:43.856Z,18.62
2017-09-20T06:44:12.455Z,21.15
2017-09-20T06:46:40.228Z,19.42
2017-09-20T06:49:08.009Z,18.58
2017-09-20T06:51:35.823Z,19.15
2017-09-20T06:54:03.612Z,17.58
2017-09-20T06:56:31.466Z,20.33
2017-09-20T06:58:59.239Z,17.10
2017-09-20T07:01:27.015Z,16.85
2017-09-20T07:03:54.833Z,15.68
2017-09-20T07:06:22.599Z,16.35
2017-09-20T07:08:50.437Z,21.77
2017-09-20T07:11:18.216Z,17.90
2017-09-20T07:27:06.268Z,16.52
2017-09-20T07:29:34.852Z,16.50
2017-09-20T07:32:02.648Z,19.35
2017-09-20T07:34:30.462Z,17.15
2017-09-20T07:36:58.295Z,15.63
2017-09-20T07:39:26.148Z,17.23
2017-09-20T07:41:53.926Z,17.75
2017-09-20T07:44:21.720Z,16.10
2017-09-20T07:46:49.537Z,17.00
2017-09-20T07:49:17.328Z,16.87
2017-09-20T07:51:45.917Z,15.95
2017-09-20T07:54:13.701Z,12.90
2017-09-20T07:56:41.469Z,14.55
2017-09-20T07:59:09.288Z,14.27
2017-09-20T08:01:37.840Z,15.32
2017-09-20T08:04:05.689Z,19.65
2017-09-20T08:06:33.465Z,14.43
2017-09-20T08:09:01.235Z,13.88
2017-09-20T08:11:29.047Z,14.50
2017-09-20T08:13:56.832Z,13.13
2017-09-20T08:16:24.670Z,15.07
2017-09-20T08:18:52.438Z,13.38
2017-09-20T08:21:20.227Z,15.95
2017-09-20T08:23:48.035Z,12.27
2017-09-20T08:26:15.811Z,14.18
2017-09-20T08:28:43.660Z,12.35
2017-09-20T08:31:12.199Z,18.40
2017-09-20T08:33:39.977Z,13.27
2017-09-20T08:36:07.785Z,14.55
2017-09-20T08:38:35.569Z,14.73
2017-09-20T08:41:04.181Z,16.02
2017-09-20T08:43:31.976Z,12.32
2017-09-20T08:46:00.525Z,14.85
2017-09-20T08:48:28.331Z,13.27
2017-09-20T08:50:56.116Z,15.45
2017-09-20T08:53:23.992Z,13.32
2017-09-20T08:55:51.779Z,13.23
2017-09-20T08:58:19.569Z,14.93
2017-09-20T09:00:48.142Z,11.30
2017-09-20T09:03:15.934Z,12.68
2017-09-20T09:05:43.769Z,12.32
2017-09-20T09:08:12.331Z,10.98
2017-09-20T09:10:40.111Z,11.25
2017-09-20T09:13:07.912Z,12.20
2017-09-20T09:15:36.464Z,13.30
2017-09-20T09:18:05.063Z,13.00
2017-09-20T09:20:32.850Z,11.27
2017-09-20T09:23:00.627Z,11.63
2017-09-20T09:25:28.432Z,11.45
2017-09-20T09:27:56.215Z,10.57
2017-09-20T09:30:24.046Z,12.27
2017-09-20T09:32:52.581Z,10.18
2017-09-20T09:35:20.364Z,11.02
2017-09-20T09:37:48.185Z,10.80
2017-09-20T09:40:16.730Z,11.43
2017-09-20T09:42:45.487Z,14.55
2017-09-20T09:45:13.285Z,11.98
2017-09-20T09:47:41.837Z,11.48
2017-09-20T09:50:09.675Z,9.93
2017-09-20T09:52:37.479Z,10.93
2017-09-20T09:55:06.076Z,11.18
2017-09-20T09:57:33.855Z,11.75
2017-09-20T10:00:01.633Z,11.05
2017-09-20T10:02:29.448Z,10.40
2017-09-20T10:04:57.993Z,11.88
2017-09-20T10:07:25.864Z,10.45
2017-09-20T10:09:53.649Z,11.52
2017-09-20T10:12:22.193Z,10.98
2017-09-20T10:14:50.001Z,11.80
2017-09-20T10:17:17.796Z,12.02
2017-09-20T10:19:45.644Z,10.85
2017-09-20T10:22:13.412Z,11.00
2017-09-20T10:24:41.212Z,14.35
2017-09-20T10:27:09.012Z,9.93
2017-09-20T10:29:37.562Z,11.10
2017-09-20T10:32:05.401Z,9.65
2017-09-20T10:34:33.185Z,11.45
2017-09-20T10:37:00.958Z,10.50
2017-09-20T10:39:28.776Z,11.30
2017-09-20T10:41:56.553Z,14.07
2017-09-20T10:44:24.397Z,9.30
2017-09-20T10:46:52.180Z,9.68
2017-09-20T10:49:19.957Z,13.43
2017-09-20T10:51:47.756Z,9.07
2017-09-20T10:54:16.302Z,9.13
2017-09-20T10:56:44.281Z,9.32
2017-09-20T10:59:12.051Z,8.57
2017-09-20T11:01:39.867Z,10.50
2017-09-20T11:04:07.681Z,9.93
2017-09-20T11:06:35.462Z,10.10
2017-09-20T11:09:03.319Z,9.60
2017-09-20T11:11:31.871Z,9.20
2017-09-20T11:13:59.649Z,9.90
2017-09-20T11:16:28.220Z,8.80
2017-09-20T11:18:56.765Z,10.10
2017-09-20T11:21:24.599Z,8.90
2017-09-20T11:23:52.388Z,8.55
2017-09-20T11:26:20.164Z,8.10
2017-09-20T11:28:47.969Z,10.38
2017-09-20T11:31:15.757Z,8.60
2017-09-20T11:33:43.581Z,8.75
2017-09-20T11:36:12.122Z,8.13
2017-09-20T11:38:39.897Z,9.00
2017-09-20T11:41:07.702Z,8.82
2017-09-20T11:43:35.506Z,8.02
2017-09-20T11:46:03.334Z,9.30
2017-09-20T11:48:31.117Z,7.28
2017-09-20T11:50:58.896Z,7.70
2017-09-20T11:53:26.713Z,12.20
2017-09-20T11:55:55.249Z,8.65
2017-09-20T11:58:23.093Z,9.18
2017-09-20T12:00:50.861Z,10.52
2017-09-20T12:03:18.673Z,9.55
2017-09-20T12:05:47.239Z,8.30
2017-09-20T12:08:15.011Z,8.82
2017-09-20T12:10:43.603Z,10.73
2017-09-20T12:13:12.162Z,9.18
2017-09-20T12:15:39.935Z,18.60
2017-09-20T12:18:07.753Z,9.32
2017-09-20T12:20:35.534Z,9.88
2017-09-20T12:23:03.527Z,8.80
2017-09-20T12:25:32.078Z,11.25
2017-09-20T12:27:59.862Z,15.75
2017-09-20T12:30:27.677Z,8.18
2017-09-20T12:32:55.451Z,13.30
2017-09-20T12:35:23.285Z,8.82
2017-09-20T12:37:51.064Z,9.65
2017-09-20T12:40:18.822Z,8.63
2017-09-20T12:42:46.633Z,10.32
2017-09-20T12:45:14.405Z,8.82
2017-09-20T12:47:43.039Z,11.52
2017-09-20T12:50:10.830Z,9.90
2017-09-20T12:52:38.615Z,10.00
2017-09-20T12:55:06.456Z,14.20
2017-09-20T12:57:34.230Z,10.10
2017-09-20T13:00:02.843Z,9.70
2017-09-20T13:02:30.626Z,12.00
2017-09-20T13:04:58.408Z,10.20
2017-09-20T13:07:26.215Z,8.20
2017-09-20T13:09:53.992Z,6.90
2017-09-20T13:12:21.828Z,8.85
2017-09-20T13:14:49.600Z,6.72
2017-09-20T13:17:17.396Z,12.05
2017-09-20T13:19:45.184Z,6.65
2017-09-20T13:22:12.944Z,6.53
2017-09-20T13:24:40.783Z,10.55
2017-09-20T13:27:08.558Z,8.95
2017-09-20T13:29:36.334Z,7.85
2017-09-20T13:32:04.132Z,8.60
2017-09-20T13:34:32.672Z,9.02
2017-09-20T13:37:00.507Z,9.38
2017-09-20T13:39:28.281Z,9.07
2017-09-20T13:41:56.066Z,10.32
2017-09-20T13:44:23.877Z,10.60
2017-09-20T13:46:51.649Z,8.23
2017-09-20T13:49:19.480Z,10.45
2017-09-20T13:51:48.013Z,9.90
2017-09-20T13:54:15.801Z,6.12
2017-09-20T13:56:43.654Z,6.35
2017-09-20T13:59:11.423Z,8.20
2017-09-20T14:01:39.240Z,8.23
2017-09-20T14:04:07.016Z,9.15
2017-09-20T14:06:35.616Z,7.50
2017-09-20T14:09:03.443Z,7.60
2017-09-20T14:11:31.207Z,12.10
2017-09-20T14:13:59.047Z,8.57
2017-09-20T14:16:27.582Z,5.65
2017-09-20T14:18:55.357Z,5.87
2017-09-20T14:21:23.161Z,47.00
2017-09-20T14:23:50.940Z,6.82
2017-09-20T14:26:18.792Z,7.78
2017-09-20T14:28:46.605Z,8.70
2017-09-20T14:31:14.378Z,8.40
2017-09-20T14:33:42.182Z,8.82
2017-09-20T14:36:09.968Z,8.60
2017-09-20T14:38:37.805Z,7.82
2017-09-20T14:41:05.578Z,7.82
2017-09-20T14:43:33.354Z,14.20
2017-09-20T14:46:01.159Z,8.48
2017-09-20T14:48:28.971Z,7.53
2017-09-20T14:50:56.802Z,9.30
2017-09-20T14:53:25.343Z,8.77
2017-09-20T14:55:53.118Z,6.10
2017-09-20T14:58:20.921Z,8.38
2017-09-20T15:00:48.700Z,6.20
2017-09-20T15:03:16.545Z,7.65
2017-09-20T15:05:45.086Z,6.62
2017-09-20T15:08:12.857Z,6.60
2017-09-20T15:10:40.661Z,7.10
2017-09-20T15:13:08.436Z,9.60
2017-09-20T15:15:36.267Z,5.60
2017-09-20T15:18:04.816Z,6.60
2017-09-20T15:20:32.589Z,6.37
2017-09-20T15:23:01.181Z,7.68
2017-09-20T15:25:29.724Z,6.43
2017-09-20T15:27:57.551Z,5.80
2017-09-20T15:30:25.425Z,6.37
2017-09-20T15:32:53.232Z,6.95
2017-09-20T15:35:21.038Z,6.18
2017-09-20T15:37:48.865Z,8.45
2017-09-20T15:40:16.707Z,7.75
2017-09-20T15:42:44.481Z,8.32
2017-09-20T15:45:12.292Z,6.95
2017-09-20T15:47:40.094Z,8.07
2017-09-20T15:50:07.860Z,5.80
2017-09-20T15:52:35.686Z,7.75
2017-09-20T15:55:03.477Z,5.43
2017-09-20T15:57:31.253Z,6.28
2017-09-20T15:59:59.068Z,5.62
2017-09-20T16:02:26.839Z,6.85
2017-09-20T16:04:54.680Z,10.35
2017-09-20T16:07:22.449Z,7.60
2017-09-20T16:09:50.225Z,7.25
2017-09-20T16:12:18.054Z,8.65
2017-09-20T16:14:46.592Z,7.05
2017-09-20T16:17:14.430Z,8.65
2017-09-20T16:19:42.217Z,9.13
2017-09-20T16:22:10.000Z,8.27
2017-09-20T16:24:37.795Z,8.27
2017-09-20T16:27:05.571Z,7.82
2017-09-20T16:29:33.400Z,9.90
2017-09-20T16:32:01.951Z,7.45
2017-09-20T16:34:29.840Z,11.88
2017-09-20T16:36:58.435Z,10.82
2017-09-20T16:39:26.989Z,8.95
2017-09-20T16:41:54.875Z,10.50
2017-09-20T16:44:23.443Z,11.27
2017-09-20T16:46:52.048Z,11.88
2017-09-20T16:49:20.707Z,12.15
2017-09-20T16:51:49.313Z,14.23
2017-09-20T16:54:17.155Z,14.55
2017-09-20T16:56:44.931Z,14.57
2017-09-20T16:59:13.600Z,15.02
2017-09-20T17:01:41.419Z,13.32
2017-09-20T17:04:09.208Z,13.15
2017-09-20T17:06:37.040Z,14.25
2017-09-20T17:09:04.857Z,11.63
2017-09-20T17:11:33.431Z,14.00
2017-09-20T17:14:01.248Z,18.62
2017-09-20T17:16:29.031Z,13.40
2017-09-20T17:18:56.876Z,13.65
2017-09-20T17:21:24.668Z,17.12
2017-09-20T17:23:52.444Z,13.73
2017-09-20T17:26:21.029Z,12.93
2017-09-20T17:28:49.574Z,18.15
2017-09-20T17:31:17.513Z,18.08
2017-09-20T17:33:45.289Z,16.15
2017-09-20T17:36:13.062Z,16.17
2017-09-20T17:38:40.883Z,17.92
2017-09-20T17:41:08.665Z,15.48
2017-09-20T17:43:36.505Z,20.58
2017-09-20T17:46:05.047Z,15.65
2017-09-20T17:48:32.833Z,18.85
2017-09-20T17:51:01.414Z,14.30
2017-09-20T17:53:29.955Z,15.55
2017-09-20T17:55:57.791Z,14.25
2017-09-20T17:58:25.580Z,17.35
2017-09-20T18:00:53.360Z,18.08
2017-09-20T18:03:21.173Z,17.77
2017-09-20T18:05:48.948Z,18.90
2017-09-20T18:08:16.776Z,17.85
2017-09-20T18:10:45.327Z,16.70
2017-09-20T18:13:13.101Z,17.23
2017-09-20T18:15:40.926Z,18.92
2017-09-20T18:18:08.711Z,18.27
2017-09-20T18:20:36.556Z,20.62
2017-09-20T18:23:04.341Z,18.87
2017-09-20T18:25:32.116Z,18.75
2017-09-20T18:27:59.930Z,18.62
2017-09-20T18:30:28.480Z,19.27
2017-09-20T18:32:57.082Z,16.48
2017-09-20T18:35:24.853Z,17.87
2017-09-20T18:37:52.784Z,21.20
2017-09-20T18:40:20.693Z,16.02
2017-09-20T18:42:48.471Z,17.95
2017-09-20T18:45:16.304Z,20.08
2017-09-20T18:47:44.085Z,17.60
2017-09-20T18:50:11.878Z,17.85
2017-09-20T18:52:39.685Z,22.08
2017-09-20T18:55:07.477Z,19.05
2017-09-20T18:57:35.326Z,19.58
2017-09-20T19:00:03.123Z,18.10
2017-09-20T19:02:30.904Z,19.65
2017-09-20T19:04:59.473Z,18.77
2017-09-20T19:07:27.281Z,22.67
2017-09-20T19:09:55.118Z,19.02
2017-09-20T19:12:23.682Z,21.40
2017-09-20T19:14:52.290Z,18.15
2017-09-20T19:17:20.469Z,17.85
2017-09-20T19:19:48.322Z,16.70
2017-09-20T19:22:16.162Z,15.35
2017-09-20T19:24:45.072Z,15.10
2017-09-20T19:27:12.923Z,15.70
2017-09-20T19:29:41.551Z,14.95
2017-09-20T19:32:09.339Z,17.35
2017-09-20T19:34:37.192Z,16.27
2017-09-20T19:37:04.993Z,19.17
2017-09-20T19:39:33.579Z,16.33
2017-09-20T19:42:01.416Z,16.35
2017-09-20T19:44:29.256Z,16.05
2017-09-20T19:46:57.108Z,17.05
2017-09-20T19:49:24.888Z,13.13
2017-09-20T19:51:52.673Z,16.75
2017-09-20T19:54:20.486Z,13.62
2017-09-20T19:56:48.270Z,17.62
2017-09-20T19:59:16.126Z,16.08
2017-09-20T20:01:43.924Z,14.55
2017-09-20T20:04:11.691Z,16.67
2017-09-20T20:06:39.531Z,19.12
2017-09-20T20:09:08.076Z,19.67
2017-09-20T20:11:35.903Z,15.82
2017-09-20T20:14:04.449Z,17.45
2017-09-20T20:16:32.245Z,18.05
2017-09-20T20:19:00.814Z,17.62
2017-09-20T20:21:28.587Z,17.75
2017-09-20T20:23:57.195Z,17.40
2017-09-20T20:26:24.980Z,16.70
2017-09-20T20:28:52.760Z,18.12
2017-09-20T20:31:20.563Z,19.33
2017-09-20T20:33:48.363Z,25.75
2017-09-20T20:36:16.199Z,69.62
2017-09-20T20:38:43.968Z,58.38
2017-09-20T20:41:11.736Z,44.47
2017-09-20T20:43:39.534Z,50.78
2017-09-20T20:46:07.303Z,38.05
2017-09-20T20:48:35.153Z,44.63
2017-09-20T20:51:02.929Z,26.67
2017-09-20T20:53:30.707Z,31.12
2017-09-20T20:55:58.512Z,26.15
2017-09-20T20:58:26.292Z,20.85
2017-09-20T21:00:54.313Z,23.95
2017-09-20T21:03:22.866Z,20.15
2017-09-20T21:05:50.643Z,20.45
2017-09-20T21:08:18.444Z,19.55
2017-09-20T21:10:46.220Z,26.98
2017-09-20T21:13:14.080Z,26.92
2017-09-20T21:15:41.872Z,28.02
2017-09-20T21:18:09.656Z,20.50
2017-09-20T21:20:37.486Z,28.65
2017-09-20T21:23:05.260Z,23.85
2017-09-20T21:25:33.101Z,27.25
2017-09-20T21:28:00.865Z,35.25
2017-09-20T21:30:28.655Z,123.28
2017-09-20T21:32:56.466Z,41.60
2017-09-20T21:35:24.244Z,47.65
2017-09-20T21:37:52.082Z,39.92
2017-09-20T21:40:19.858Z,36.85
2017-09-20T21:42:47.637Z,32.10
2017-09-20T21:45:15.444Z,38.38
2017-09-20T21:47:43.987Z,30.75
2017-09-20T21:50:11.841Z,36.42
2017-09-20T21:52:39.617Z,36.70
2017-09-20T21:55:07.384Z,39.15
2017-09-20T21:57:35.182Z,35.03
2017-09-20T22:00:03.730Z,29.70
2017-09-20T22:02:31.582Z,34.72
2017-09-20T22:04:59.361Z,32.85
2017-09-20T22:07:27.129Z,38.63
2017-09-20T22:09:54.942Z,35.25
2017-09-20T22:12:22.716Z,36.65
2017-09-20T22:14:50.055Z,36.05
2017-09-20T22:17:29.637Z,39.85
2017-09-20T22:20:09.205Z,43.90
2017-09-20T22:22:49.453Z,36.60
2017-09-20T22:25:29.776Z,37.72
2017-09-20T22:27:57.552Z,43.85
2017-09-20T22:30:25.337Z,42.35
2017-09-20T22:32:53.916Z,38.15
2017-09-20T22:35:22.474Z,32.08
2017-09-20T22:37:50.304Z,34.38
2017-09-20T22:40:18.086Z,34.90
2017-09-20T22:42:45.860Z,32.53
2017-09-20T22:45:13.678Z,29.52
2017-09-20T22:47:41.460Z,29.30
2017-09-20T22:50:09.300Z,28.17
2017-09-20T22:52:37.073Z,33.92
2017-09-20T22:55:04.867Z,33.03
2017-09-20T22:57:32.660Z,23.67
2017-09-20T23:00:01.202Z,23.60
2017-09-20T23:02:29.053Z,34.65
2017-09-20T23:04:56.832Z,27.48
2017-09-20T23:07:24.608Z,34.55
2017-09-20T23:09:52.414Z,29.80
2017-09-20T23:12:20.187Z,49.05
2017-09-20T23:14:48.025Z,36.60
2017-09-20T23:17:15.803Z,36.00
2017-09-20T23:19:44.345Z,45.58
2017-09-20T23:22:12.926Z,64.95
2017-09-20T23:24:40.733Z,44.85
2017-09-20T23:27:08.564Z,72.12
2017-09-20T23:29:37.120Z,54.80
2017-09-20T23:32:04.896Z,44.85
2017-09-20T23:34:33.468Z,46.70
2017-09-20T23:37:01.239Z,42.08
2017-09-20T23:39:29.838Z,42.55
2017-09-20T23:41:57.607Z,52.17
2017-09-20T23:44:25.379Z,40.42
2017-09-20T23:46:53.186Z,45.83
2017-09-20T23:49:20.986Z,45.75
2017-09-20T23:51:49.576Z,45.95
2017-09-20T23:54:17.361Z,43.67
2017-09-20T23:56:45.132Z,44.85
2017-09-20T23:59:12.938Z,37.72
